sensor_id;sensor_type;location;lat;lon;timestamp;P1;durP1;ratioP1;P2;durP2;ratioP2
66020;SDS011;52789;59.980;30.346;2022-09-27T00:00:43;4.90;;;3.80;;
66020;SDS011;52789;59.980;30.346;2022-09-27T00:03:09;7.23;;;4.07;;
66020;SDS011;52789;59.980;30.346;2022-09-27T00:05:35;6.57;;;4.10;;
66020;SDS011;52789;59.980;30.346;2022-09-27T00:08:01;5.77;;;3.37;;
66020;SDS011;52789;59.980;30.346;2022-09-27T00:10:27;7.33;;;4.20;;
66020;SDS011;52789;59.980;30.346;2022-09-27T00:12:53;4.37;;;3.43;;
66020;SDS011;52789;59.980;30.346;2022-09-27T00:15:19;8.90;;;4.53;;
66020;SDS011;52789;59.980;30.346;2022-09-27T00:17:45;4.90;;;4.17;;
66020;SDS011;52789;59.980;30.346;2022-09-27T00:20:11;6.37;;;4.13;;
66020;SDS011;52789;59.980;30.346;2022-09-27T00:22:36;5.97;;;4.23;;
66020;SDS011;52789;59.980;30.346;2022-09-27T00:25:02;4.40;;;3.40;;
66020;SDS011;52789;59.980;30.346;2022-09-27T00:27:31;6.60;;;3.83;;
66020;SDS011;52789;59.980;30.346;2022-09-27T00:29:57;5.40;;;3.47;;
66020;SDS011;52789;59.980;30.346;2022-09-27T00:32:22;5.63;;;3.73;;
66020;SDS011;52789;59.980;30.346;2022-09-27T00:34:48;7.00;;;3.97;;
66020;SDS011;52789;59.980;30.346;2022-09-27T00:37:13;7.13;;;3.80;;
66020;SDS011;52789;59.980;30.346;2022-09-27T00:39:39;4.00;;;3.30;;
66020;SDS011;52789;59.980;30.346;2022-09-27T00:42:05;5.67;;;4.17;;
66020;SDS011;52789;59.980;30.346;2022-09-27T00:50:02;4.43;;;3.60;;
66020;SDS011;52789;59.980;30.346;2022-09-27T00:52:53;5.33;;;3.63;;
66020;SDS011;52789;59.980;30.346;2022-09-27T00:55:22;4.80;;;3.30;;
66020;SDS011;52789;59.980;30.346;2022-09-27T00:57:53;7.80;;;4.33;;
66020;SDS011;52789;59.980;30.346;2022-09-27T01:00:20;4.93;;;3.60;;
66020;SDS011;52789;59.980;30.346;2022-09-27T01:02:49;4.73;;;3.63;;
66020;SDS011;52789;59.980;30.346;2022-09-27T01:05:17;4.80;;;4.03;;
66020;SDS011;52789;59.980;30.346;2022-09-27T01:07:46;7.40;;;4.70;;
66020;SDS011;52789;59.980;30.346;2022-09-27T01:10:11;9.53;;;4.87;;
66020;SDS011;52789;59.980;30.346;2022-09-27T01:34:36;13.13;;;6.40;;
66020;SDS011;52789;59.980;30.346;2022-09-27T01:40:30;7.30;;;6.03;;
66020;SDS011;52789;59.980;30.346;2022-09-27T01:45:43;9.03;;;6.30;;
66020;SDS011;52789;59.980;30.346;2022-09-27T01:48:23;7.72;;;6.45;;
66020;SDS011;52789;59.980;30.346;2022-09-27T01:51:01;13.03;;;6.63;;
66020;SDS011;52789;59.980;30.346;2022-09-27T01:53:36;10.03;;;6.53;;
66020;SDS011;52789;59.980;30.346;2022-09-27T01:56:05;9.50;;;7.13;;
66020;SDS011;52789;59.980;30.346;2022-09-27T01:58:40;8.37;;;6.23;;
66020;SDS011;52789;59.980;30.346;2022-09-27T02:01:11;10.23;;;6.97;;
66020;SDS011;52789;59.980;30.346;2022-09-27T02:03:42;11.23;;;7.07;;
66020;SDS011;52789;59.980;30.346;2022-09-27T02:06:18;9.47;;;7.03;;
66020;SDS011;52789;59.980;30.346;2022-09-27T02:08:58;9.13;;;6.80;;
66020;SDS011;52789;59.980;30.346;2022-09-27T02:11:38;11.07;;;6.77;;
66020;SDS011;52789;59.980;30.346;2022-09-27T02:14:10;11.47;;;6.23;;
66020;SDS011;52789;59.980;30.346;2022-09-27T02:30:24;10.33;;;7.67;;
66020;SDS011;52789;59.980;30.346;2022-09-27T02:32:50;10.37;;;7.80;;
66020;SDS011;52789;59.980;30.346;2022-09-27T02:35:26;11.03;;;8.60;;
66020;SDS011;52789;59.980;30.346;2022-09-27T02:37:55;12.73;;;8.07;;
66020;SDS011;52789;59.980;30.346;2022-09-27T02:40:22;11.97;;;8.03;;
66020;SDS011;52789;59.980;30.346;2022-09-27T02:42:51;13.75;;;8.80;;
66020;SDS011;52789;59.980;30.346;2022-09-27T02:45:17;13.23;;;8.57;;
66020;SDS011;52789;59.980;30.346;2022-09-27T02:50:43;11.00;;;8.23;;
66020;SDS011;52789;59.980;30.346;2022-09-27T03:01:30;11.40;;;8.70;;
66020;SDS011;52789;59.980;30.346;2022-09-27T03:04:06;12.00;;;8.90;;
66020;SDS011;52789;59.980;30.346;2022-09-27T03:06:34;12.30;;;8.47;;
66020;SDS011;52789;59.980;30.346;2022-09-27T03:09:01;12.33;;;9.00;;
66020;SDS011;52789;59.980;30.346;2022-09-27T03:11:27;10.47;;;8.43;;
66020;SDS011;52789;59.980;30.346;2022-09-27T03:13:52;12.80;;;9.07;;
66020;SDS011;52789;59.980;30.346;2022-09-27T03:16:18;13.77;;;9.43;;
66020;SDS011;52789;59.980;30.346;2022-09-27T03:18:44;12.40;;;9.57;;
66020;SDS011;52789;59.980;30.346;2022-09-27T03:21:09;12.83;;;9.63;;
66020;SDS011;52789;59.980;30.346;2022-09-27T03:23:35;12.67;;;9.50;;
66020;SDS011;52789;59.980;30.346;2022-09-27T03:26:00;13.97;;;10.00;;
66020;SDS011;52789;59.980;30.346;2022-09-27T03:28:25;14.70;;;9.27;;
66020;SDS011;52789;59.980;30.346;2022-09-27T03:30:53;14.77;;;10.47;;
66020;SDS011;52789;59.980;30.346;2022-09-27T03:33:21;17.93;;;10.17;;
66020;SDS011;52789;59.980;30.346;2022-09-27T03:35:46;15.57;;;10.00;;
66020;SDS011;52789;59.980;30.346;2022-09-27T03:38:12;16.97;;;10.80;;
66020;SDS011;52789;59.980;30.346;2022-09-27T03:40:38;14.30;;;10.17;;
66020;SDS011;52789;59.980;30.346;2022-09-27T03:43:03;14.03;;;10.13;;
66020;SDS011;52789;59.980;30.346;2022-09-27T03:45:31;13.30;;;10.43;;
66020;SDS011;52789;59.980;30.346;2022-09-27T03:47:56;14.53;;;10.80;;
66020;SDS011;52789;59.980;30.346;2022-09-27T03:50:22;14.30;;;10.47;;
66020;SDS011;52789;59.980;30.346;2022-09-27T03:52:47;17.83;;;10.80;;
66020;SDS011;52789;59.980;30.346;2022-09-27T03:55:13;17.40;;;11.33;;
66020;SDS011;52789;59.980;30.346;2022-09-27T03:57:39;15.07;;;10.80;;
66020;SDS011;52789;59.980;30.346;2022-09-27T04:00:09;16.53;;;11.60;;
66020;SDS011;52789;59.980;30.346;2022-09-27T04:02:35;15.27;;;10.37;;
66020;SDS011;52789;59.980;30.346;2022-09-27T04:05:00;15.07;;;10.60;;
66020;SDS011;52789;59.980;30.346;2022-09-27T04:07:26;15.10;;;10.70;;
66020;SDS011;52789;59.980;30.346;2022-09-27T04:09:51;15.43;;;11.07;;
66020;SDS011;52789;59.980;30.346;2022-09-27T04:15:56;19.87;;;11.63;;
66020;SDS011;52789;59.980;30.346;2022-09-27T04:18:22;16.30;;;11.30;;
66020;SDS011;52789;59.980;30.346;2022-09-27T04:20:47;14.67;;;11.67;;
66020;SDS011;52789;59.980;30.346;2022-09-27T04:23:13;19.13;;;13.90;;
66020;SDS011;52789;59.980;30.346;2022-09-27T04:25:38;15.43;;;9.97;;
66020;SDS011;52789;59.980;30.346;2022-09-27T04:28:04;20.53;;;12.33;;
66020;SDS011;52789;59.980;30.346;2022-09-27T04:30:30;15.87;;;12.57;;
66020;SDS011;52789;59.980;30.346;2022-09-27T04:32:56;19.03;;;11.73;;
66020;SDS011;52789;59.980;30.346;2022-09-27T04:35:24;15.00;;;11.55;;
66020;SDS011;52789;59.980;30.346;2022-09-27T04:38:11;18.57;;;12.40;;
66020;SDS011;52789;59.980;30.346;2022-09-27T04:40:38;29.87;;;14.77;;
66020;SDS011;52789;59.980;30.346;2022-09-27T04:43:04;24.20;;;16.40;;
66020;SDS011;52789;59.980;30.346;2022-09-27T04:45:29;24.50;;;14.17;;
66020;SDS011;52789;59.980;30.346;2022-09-27T04:47:55;28.93;;;14.90;;
66020;SDS011;52789;59.980;30.346;2022-09-27T04:50:20;22.07;;;13.97;;
66020;SDS011;52789;59.980;30.346;2022-09-27T04:52:52;16.73;;;12.57;;
66020;SDS011;52789;59.980;30.346;2022-09-27T04:55:19;23.83;;;14.40;;
66020;SDS011;52789;59.980;30.346;2022-09-27T04:57:46;19.90;;;13.43;;
66020;SDS011;52789;59.980;30.346;2022-09-27T05:00:12;25.10;;;13.07;;
66020;SDS011;52789;59.980;30.346;2022-09-27T05:02:42;25.47;;;14.47;;
66020;SDS011;52789;59.980;30.346;2022-09-27T05:05:10;25.17;;;13.57;;
66020;SDS011;52789;59.980;30.346;2022-09-27T05:07:36;20.03;;;13.03;;
66020;SDS011;52789;59.980;30.346;2022-09-27T05:10:02;21.67;;;13.10;;
66020;SDS011;52789;59.980;30.346;2022-09-27T05:12:29;18.03;;;11.93;;
66020;SDS011;52789;59.980;30.346;2022-09-27T05:14:54;18.63;;;12.50;;
66020;SDS011;52789;59.980;30.346;2022-09-27T05:17:20;20.03;;;14.50;;
66020;SDS011;52789;59.980;30.346;2022-09-27T05:19:46;17.47;;;12.30;;
66020;SDS011;52789;59.980;30.346;2022-09-27T05:22:12;19.43;;;11.00;;
66020;SDS011;52789;59.980;30.346;2022-09-27T05:24:39;19.83;;;13.47;;
66020;SDS011;52789;59.980;30.346;2022-09-27T05:27:14;22.33;;;12.70;;
66020;SDS011;52789;59.980;30.346;2022-09-27T05:29:49;21.97;;;13.40;;
66020;SDS011;52789;59.980;30.346;2022-09-27T05:32:15;30.03;;;13.43;;
66020;SDS011;52789;59.980;30.346;2022-09-27T05:34:41;18.67;;;13.77;;
66020;SDS011;52789;59.980;30.346;2022-09-27T05:37:06;24.20;;;13.37;;
66020;SDS011;52789;59.980;30.346;2022-09-27T05:39:32;19.53;;;13.03;;
66020;SDS011;52789;59.980;30.346;2022-09-27T05:41:58;22.73;;;13.97;;
66020;SDS011;52789;59.980;30.346;2022-09-27T05:44:27;23.97;;;13.60;;
66020;SDS011;52789;59.980;30.346;2022-09-27T05:46:52;14.45;;;11.20;;
66020;SDS011;52789;59.980;30.346;2022-09-27T05:49:18;17.63;;;12.37;;
66020;SDS011;52789;59.980;30.346;2022-09-27T05:51:44;20.07;;;11.40;;
66020;SDS011;52789;59.980;30.346;2022-09-27T05:54:09;14.97;;;9.53;;
66020;SDS011;52789;59.980;30.346;2022-09-27T05:56:35;13.20;;;8.03;;
66020;SDS011;52789;59.980;30.346;2022-09-27T05:59:02;14.60;;;9.93;;
66020;SDS011;52789;59.980;30.346;2022-09-27T06:01:29;9.77;;;7.03;;
66020;SDS011;52789;59.980;30.346;2022-09-27T06:03:54;10.47;;;5.63;;
66020;SDS011;52789;59.980;30.346;2022-09-27T06:06:22;7.93;;;5.43;;
66020;SDS011;52789;59.980;30.346;2022-09-27T06:08:48;6.50;;;5.00;;
66020;SDS011;52789;59.980;30.346;2022-09-27T06:11:16;9.57;;;4.90;;
66020;SDS011;52789;59.980;30.346;2022-09-27T06:13:41;5.65;;;4.93;;
66020;SDS011;52789;59.980;30.346;2022-09-27T06:16:08;8.37;;;4.97;;
66020;SDS011;52789;59.980;30.346;2022-09-27T06:18:35;7.25;;;5.13;;
66020;SDS011;52789;59.980;30.346;2022-09-27T06:21:01;7.73;;;5.70;;
66020;SDS011;52789;59.980;30.346;2022-09-27T06:23:28;5.70;;;4.87;;
66020;SDS011;52789;59.980;30.346;2022-09-27T06:26:03;6.63;;;5.80;;
66020;SDS011;52789;59.980;30.346;2022-09-27T06:28:33;10.13;;;7.23;;
66020;SDS011;52789;59.980;30.346;2022-09-27T06:31:03;8.07;;;6.72;;
66020;SDS011;52789;59.980;30.346;2022-09-27T06:33:33;24.70;;;14.87;;
66020;SDS011;52789;59.980;30.346;2022-09-27T06:36:03;16.07;;;12.63;;
66020;SDS011;52789;59.980;30.346;2022-09-27T06:38:30;12.50;;;9.93;;
66020;SDS011;52789;59.980;30.346;2022-09-27T06:41:00;13.30;;;11.00;;
66020;SDS011;52789;59.980;30.346;2022-09-27T06:43:33;14.07;;;11.83;;
66020;SDS011;52789;59.980;30.346;2022-09-27T06:45:59;15.50;;;12.67;;
66020;SDS011;52789;59.980;30.346;2022-09-27T06:48:30;19.43;;;12.43;;
66020;SDS011;52789;59.980;30.346;2022-09-27T06:50:56;17.70;;;12.30;;
66020;SDS011;52789;59.980;30.346;2022-09-27T06:53:23;19.17;;;13.00;;
66020;SDS011;52789;59.980;30.346;2022-09-27T06:55:49;18.07;;;12.77;;
66020;SDS011;52789;59.980;30.346;2022-09-27T06:58:16;18.10;;;13.23;;
66020;SDS011;52789;59.980;30.346;2022-09-27T07:01:01;20.87;;;13.13;;
66020;SDS011;52789;59.980;30.346;2022-09-27T07:03:29;17.77;;;12.80;;
66020;SDS011;52789;59.980;30.346;2022-09-27T07:06:03;16.23;;;12.87;;
66020;SDS011;52789;59.980;30.346;2022-09-27T07:08:30;17.10;;;13.40;;
66020;SDS011;52789;59.980;30.346;2022-09-27T07:11:00;18.10;;;12.00;;
66020;SDS011;52789;59.980;30.346;2022-09-27T07:13:28;14.83;;;12.20;;
66020;SDS011;52789;59.980;30.346;2022-09-27T07:15:57;16.90;;;12.60;;
66020;SDS011;52789;59.980;30.346;2022-09-27T07:18:23;17.27;;;12.50;;
66020;SDS011;52789;59.980;30.346;2022-09-27T07:20:48;16.70;;;13.13;;
66020;SDS011;52789;59.980;30.346;2022-09-27T07:23:15;14.67;;;10.70;;
66020;SDS011;52789;59.980;30.346;2022-09-27T07:25:41;21.67;;;11.37;;
66020;SDS011;52789;59.980;30.346;2022-09-27T07:28:08;15.47;;;9.83;;
66020;SDS011;52789;59.980;30.346;2022-09-27T07:30:38;20.77;;;10.70;;
66020;SDS011;52789;59.980;30.346;2022-09-27T07:33:04;16.27;;;10.70;;
66020;SDS011;52789;59.980;30.346;2022-09-27T07:35:31;16.33;;;10.37;;
66020;SDS011;52789;59.980;30.346;2022-09-27T07:41:22;14.60;;;9.27;;
66020;SDS011;52789;59.980;30.346;2022-09-27T07:43:47;15.27;;;8.97;;
66020;SDS011;52789;59.980;30.346;2022-09-27T07:46:13;13.97;;;9.83;;
66020;SDS011;52789;59.980;30.346;2022-09-27T07:48:38;12.00;;;9.03;;
66020;SDS011;52789;59.980;30.346;2022-09-27T07:51:05;11.60;;;7.90;;
66020;SDS011;52789;59.980;30.346;2022-09-27T07:53:32;13.30;;;8.70;;
66020;SDS011;52789;59.980;30.346;2022-09-27T07:55:58;11.37;;;7.90;;
66020;SDS011;52789;59.980;30.346;2022-09-27T07:58:23;10.17;;;7.17;;
66020;SDS011;52789;59.980;30.346;2022-09-27T08:00:49;16.60;;;7.53;;
66020;SDS011;52789;59.980;30.346;2022-09-27T08:03:15;12.00;;;7.70;;
66020;SDS011;52789;59.980;30.346;2022-09-27T08:05:45;10.30;;;7.50;;
66020;SDS011;52789;59.980;30.346;2022-09-27T08:08:11;15.00;;;9.20;;
66020;SDS011;52789;59.980;30.346;2022-09-27T08:10:38;10.13;;;8.57;;
66020;SDS011;52789;59.980;30.346;2022-09-27T08:13:08;12.97;;;8.10;;
66020;SDS011;52789;59.980;30.346;2022-09-27T08:15:35;18.37;;;9.03;;
66020;SDS011;52789;59.980;30.346;2022-09-27T08:18:02;13.23;;;7.40;;
66020;SDS011;52789;59.980;30.346;2022-09-27T08:20:28;13.57;;;8.37;;
66020;SDS011;52789;59.980;30.346;2022-09-27T08:22:53;15.50;;;8.60;;
66020;SDS011;52789;59.980;30.346;2022-09-27T08:25:19;13.63;;;8.90;;
66020;SDS011;52789;59.980;30.346;2022-09-27T08:27:53;17.60;;;8.10;;
66020;SDS011;52789;59.980;30.346;2022-09-27T08:30:23;21.17;;;9.10;;
66020;SDS011;52789;59.980;30.346;2022-09-27T08:32:54;20.07;;;9.70;;
66020;SDS011;52789;59.980;30.346;2022-09-27T08:35:20;10.90;;;7.70;;
66020;SDS011;52789;59.980;30.346;2022-09-27T08:37:56;13.97;;;7.10;;
66020;SDS011;52789;59.980;30.346;2022-09-27T08:40:24;19.13;;;7.70;;
66020;SDS011;52789;59.980;30.346;2022-09-27T08:46:06;12.27;;;7.73;;
66020;SDS011;52789;59.980;30.346;2022-09-27T08:48:35;13.63;;;7.17;;
66020;SDS011;52789;59.980;30.346;2022-09-27T08:51:03;14.48;;;6.68;;
66020;SDS011;52789;59.980;30.346;2022-09-27T08:53:34;11.53;;;6.67;;
66020;SDS011;52789;59.980;30.346;2022-09-27T08:56:17;10.17;;;6.43;;
66020;SDS011;52789;59.980;30.346;2022-09-27T08:59:00;10.15;;;6.38;;
66020;SDS011;52789;59.980;30.346;2022-09-27T09:01:39;12.10;;;5.60;;
66020;SDS011;52789;59.980;30.346;2022-09-27T09:04:05;6.93;;;5.17;;
66020;SDS011;52789;59.980;30.346;2022-09-27T09:09:42;8.70;;;4.53;;
66020;SDS011;52789;59.980;30.346;2022-09-27T09:12:21;8.57;;;4.93;;
66020;SDS011;52789;59.980;30.346;2022-09-27T09:17:44;6.53;;;5.23;;
66020;SDS011;52789;59.980;30.346;2022-09-27T09:29:00;7.67;;;4.73;;
66020;SDS011;52789;59.980;30.346;2022-09-27T09:31:38;5.97;;;4.20;;
66020;SDS011;52789;59.980;30.346;2022-09-27T09:34:27;6.95;;;4.20;;
66020;SDS011;52789;59.980;30.346;2022-09-27T09:37:07;8.43;;;5.70;;
66020;SDS011;52789;59.980;30.346;2022-09-27T09:42:12;4.40;;;4.00;;
66020;SDS011;52789;59.980;30.346;2022-09-27T09:50:28;4.37;;;3.33;;
66020;SDS011;52789;59.980;30.346;2022-09-27T09:55:53;2.17;;;1.97;;
66020;SDS011;52789;59.980;30.346;2022-09-27T10:01:40;3.27;;;2.10;;
66020;SDS011;52789;59.980;30.346;2022-09-27T10:04:22;4.07;;;2.23;;
66020;SDS011;52789;59.980;30.346;2022-09-27T10:06:50;3.07;;;2.13;;
66020;SDS011;52789;59.980;30.346;2022-09-27T10:09:18;2.50;;;2.27;;
66020;SDS011;52789;59.980;30.346;2022-09-27T10:11:48;2.47;;;2.17;;
66020;SDS011;52789;59.980;30.346;2022-09-27T10:14:15;2.83;;;2.07;;
66020;SDS011;52789;59.980;30.346;2022-09-27T10:16:59;4.97;;;1.90;;
66020;SDS011;52789;59.980;30.346;2022-09-27T10:19:29;6.67;;;2.43;;
66020;SDS011;52789;59.980;30.346;2022-09-27T10:21:58;3.25;;;2.20;;
66020;SDS011;52789;59.980;30.346;2022-09-27T10:24:26;5.77;;;2.43;;
66020;SDS011;52789;59.980;30.346;2022-09-27T10:26:53;2.37;;;2.17;;
66020;SDS011;52789;59.980;30.346;2022-09-27T10:29:30;5.93;;;2.70;;
66020;SDS011;52789;59.980;30.346;2022-09-27T10:31:58;2.50;;;2.00;;
66020;SDS011;52789;59.980;30.346;2022-09-27T10:34:37;2.50;;;2.30;;
66020;SDS011;52789;59.980;30.346;2022-09-27T10:39:37;2.60;;;2.03;;
66020;SDS011;52789;59.980;30.346;2022-09-27T10:42:21;2.70;;;2.38;;
66020;SDS011;52789;59.980;30.346;2022-09-27T10:44:47;2.43;;;2.17;;
66020;SDS011;52789;59.980;30.346;2022-09-27T10:47:14;6.90;;;2.90;;
66020;SDS011;52789;59.980;30.346;2022-09-27T10:49:47;4.30;;;2.30;;
66020;SDS011;52789;59.980;30.346;2022-09-27T10:52:14;3.17;;;2.47;;
66020;SDS011;52789;59.980;30.346;2022-09-27T10:54:51;4.67;;;2.27;;
66020;SDS011;52789;59.980;30.346;2022-09-27T10:57:40;3.53;;;2.43;;
66020;SDS011;52789;59.980;30.346;2022-09-27T11:00:07;5.43;;;2.77;;
66020;SDS011;52789;59.980;30.346;2022-09-27T11:02:53;7.13;;;2.80;;
66020;SDS011;52789;59.980;30.346;2022-09-27T11:07:58;4.57;;;2.70;;
66020;SDS011;52789;59.980;30.346;2022-09-27T11:10:34;6.50;;;3.10;;
66020;SDS011;52789;59.980;30.346;2022-09-27T11:15:49;4.57;;;2.63;;
66020;SDS011;52789;59.980;30.346;2022-09-27T11:27:03;4.15;;;2.88;;
66020;SDS011;52789;59.980;30.346;2022-09-27T11:38:24;3.10;;;2.53;;
66020;SDS011;52789;59.980;30.346;2022-09-27T11:46:27;3.27;;;2.57;;
66020;SDS011;52789;59.980;30.346;2022-09-27T11:49:12;12.63;;;2.93;;
66020;SDS011;52789;59.980;30.346;2022-09-27T11:55:13;3.20;;;2.20;;
66020;SDS011;52789;59.980;30.346;2022-09-27T11:57:41;3.53;;;2.80;;
66020;SDS011;52789;59.980;30.346;2022-09-27T12:00:18;6.60;;;2.60;;
66020;SDS011;52789;59.980;30.346;2022-09-27T12:06:09;7.33;;;2.53;;
66020;SDS011;52789;59.980;30.346;2022-09-27T12:11:18;5.03;;;3.83;;
66020;SDS011;52789;59.980;30.346;2022-09-27T12:13:53;4.07;;;2.40;;
66020;SDS011;52789;59.980;30.346;2022-09-27T12:16:26;4.45;;;3.15;;
66020;SDS011;52789;59.980;30.346;2022-09-27T12:18:54;2.28;;;2.08;;
66020;SDS011;52789;59.980;30.346;2022-09-27T12:21:22;3.15;;;2.20;;
66020;SDS011;52789;59.980;30.346;2022-09-27T12:23:50;7.40;;;2.07;;
66020;SDS011;52789;59.980;30.346;2022-09-27T12:29:13;5.13;;;2.50;;
66020;SDS011;52789;59.980;30.346;2022-09-27T12:31:53;3.90;;;2.87;;
66020;SDS011;52789;59.980;30.346;2022-09-27T12:40:25;6.80;;;3.13;;
66020;SDS011;52789;59.980;30.346;2022-09-27T12:45:38;3.07;;;2.23;;
66020;SDS011;52789;59.980;30.346;2022-09-27T12:48:19;4.53;;;2.20;;
66020;SDS011;52789;59.980;30.346;2022-09-27T12:51:14;3.43;;;2.20;;
66020;SDS011;52789;59.980;30.346;2022-09-27T13:12:54;6.38;;;2.60;;
66020;SDS011;52789;59.980;30.346;2022-09-27T13:15:24;5.17;;;2.43;;
66020;SDS011;52789;59.980;30.346;2022-09-27T13:17:55;2.20;;;2.00;;
66020;SDS011;52789;59.980;30.346;2022-09-27T13:22:52;4.28;;;1.90;;
66020;SDS011;52789;59.980;30.346;2022-09-27T13:31:10;3.63;;;1.73;;
66020;SDS011;52789;59.980;30.346;2022-09-27T13:33:46;2.40;;;1.80;;
66020;SDS011;52789;59.980;30.346;2022-09-27T13:46:51;7.37;;;2.40;;
66020;SDS011;52789;59.980;30.346;2022-09-27T13:49:32;3.30;;;2.40;;
66020;SDS011;52789;59.980;30.346;2022-09-27T13:52:04;2.63;;;2.37;;
66020;SDS011;52789;59.980;30.346;2022-09-27T14:05:37;5.07;;;3.73;;
66020;SDS011;52789;59.980;30.346;2022-09-27T14:10:58;3.97;;;2.20;;
66020;SDS011;52789;59.980;30.346;2022-09-27T14:16:31;6.13;;;3.00;;
66020;SDS011;52789;59.980;30.346;2022-09-27T14:18:59;9.80;;;5.30;;
66020;SDS011;52789;59.980;30.346;2022-09-27T14:21:33;12.87;;;6.77;;
66020;SDS011;52789;59.980;30.346;2022-09-27T14:25:12;5.97;;;3.40;;
66020;SDS011;52789;59.980;30.346;2022-09-27T14:27:04;7.68;;;2.83;;
66020;SDS011;52789;59.980;30.346;2022-09-27T14:29:40;13.73;;;3.73;;
66020;SDS011;52789;59.980;30.346;2022-09-27T14:32:22;7.30;;;3.87;;
66020;SDS011;52789;59.980;30.346;2022-09-27T14:38:00;8.83;;;2.93;;
66020;SDS011;52789;59.980;30.346;2022-09-27T14:40:27;3.72;;;2.90;;
66020;SDS011;52789;59.980;30.346;2022-09-27T14:43:02;5.53;;;2.33;;
66020;SDS011;52789;59.980;30.346;2022-09-27T14:45:37;10.37;;;3.13;;
66020;SDS011;52789;59.980;30.346;2022-09-27T14:48:17;4.40;;;3.23;;
66020;SDS011;52789;59.980;30.346;2022-09-27T14:53:41;9.07;;;3.93;;
66020;SDS011;52789;59.980;30.346;2022-09-27T14:56:13;13.63;;;5.77;;
66020;SDS011;52789;59.980;30.346;2022-09-27T14:58:46;5.47;;;4.70;;
66020;SDS011;52789;59.980;30.346;2022-09-27T15:01:21;5.73;;;4.30;;
66020;SDS011;52789;59.980;30.346;2022-09-27T15:03:48;6.37;;;5.17;;
66020;SDS011;52789;59.980;30.346;2022-09-27T15:06:17;7.43;;;5.20;;
66020;SDS011;52789;59.980;30.346;2022-09-27T15:08:44;7.17;;;5.70;;
66020;SDS011;52789;59.980;30.346;2022-09-27T15:11:13;11.73;;;5.03;;
66020;SDS011;52789;59.980;30.346;2022-09-27T15:16:57;5.20;;;4.70;;
66020;SDS011;52789;59.980;30.346;2022-09-27T15:19:29;7.07;;;5.07;;
66020;SDS011;52789;59.980;30.346;2022-09-27T15:21:55;9.77;;;5.37;;
66020;SDS011;52789;59.980;30.346;2022-09-27T15:29:41;9.80;;;5.00;;
66020;SDS011;52789;59.980;30.346;2022-09-27T15:32:13;10.70;;;5.10;;
66020;SDS011;52789;59.980;30.346;2022-09-27T15:34:41;8.20;;;5.68;;
66020;SDS011;52789;59.980;30.346;2022-09-27T15:37:09;8.37;;;5.93;;
66020;SDS011;52789;59.980;30.346;2022-09-27T15:39:51;9.33;;;6.00;;
66020;SDS011;52789;59.980;30.346;2022-09-27T15:42:17;10.67;;;7.37;;
66020;SDS011;52789;59.980;30.346;2022-09-27T15:44:50;8.07;;;5.00;;
66020;SDS011;52789;59.980;30.346;2022-09-27T15:50:41;7.30;;;5.60;;
66020;SDS011;52789;59.980;30.346;2022-09-27T15:52:51;8.33;;;4.93;;
66020;SDS011;52789;59.980;30.346;2022-09-27T15:55:24;6.60;;;5.03;;
66020;SDS011;52789;59.980;30.346;2022-09-27T16:00:23;12.07;;;6.57;;
66020;SDS011;52789;59.980;30.346;2022-09-27T16:02:53;8.57;;;5.45;;
66020;SDS011;52789;59.980;30.346;2022-09-27T16:05:18;6.87;;;6.13;;
66020;SDS011;52789;59.980;30.346;2022-09-27T16:07:44;14.20;;;7.13;;
66020;SDS011;52789;59.980;30.346;2022-09-27T16:10:13;8.83;;;6.70;;
66020;SDS011;52789;59.980;30.346;2022-09-27T16:12:41;8.40;;;6.63;;
66020;SDS011;52789;59.980;30.346;2022-09-27T16:15:09;9.97;;;7.63;;
66020;SDS011;52789;59.980;30.346;2022-09-27T16:17:38;11.07;;;8.77;;
66020;SDS011;52789;59.980;30.346;2022-09-27T16:20:08;7.97;;;6.15;;
66020;SDS011;52789;59.980;30.346;2022-09-27T16:22:39;18.23;;;8.30;;
66020;SDS011;52789;59.980;30.346;2022-09-27T16:25:04;11.77;;;7.53;;
66020;SDS011;52789;59.980;30.346;2022-09-27T16:27:30;14.33;;;8.00;;
66020;SDS011;52789;59.980;30.346;2022-09-27T16:29:56;11.50;;;8.37;;
66020;SDS011;52789;59.980;30.346;2022-09-27T16:32:22;11.20;;;6.77;;
66020;SDS011;52789;59.980;30.346;2022-09-27T16:34:48;12.93;;;8.57;;
66020;SDS011;52789;59.980;30.346;2022-09-27T16:37:14;14.50;;;9.57;;
66020;SDS011;52789;59.980;30.346;2022-09-27T16:39:40;13.63;;;8.90;;
66020;SDS011;52789;59.980;30.346;2022-09-27T16:42:05;14.40;;;9.73;;
66020;SDS011;52789;59.980;30.346;2022-09-27T16:44:32;27.60;;;13.30;;
66020;SDS011;52789;59.980;30.346;2022-09-27T16:47:04;21.23;;;13.80;;
66020;SDS011;52789;59.980;30.346;2022-09-27T16:49:31;22.07;;;12.30;;
66020;SDS011;52789;59.980;30.346;2022-09-27T16:52:15;14.97;;;10.73;;
66020;SDS011;52789;59.980;30.346;2022-09-27T16:54:41;15.73;;;9.83;;
66020;SDS011;52789;59.980;30.346;2022-09-27T16:57:08;11.97;;;9.43;;
66020;SDS011;52789;59.980;30.346;2022-09-27T16:59:43;14.20;;;9.37;;
66020;SDS011;52789;59.980;30.346;2022-09-27T17:02:26;10.77;;;8.60;;
66020;SDS011;52789;59.980;30.346;2022-09-27T17:04:52;12.33;;;8.80;;
66020;SDS011;52789;59.980;30.346;2022-09-27T17:07:18;14.50;;;9.13;;
66020;SDS011;52789;59.980;30.346;2022-09-27T17:09:45;11.57;;;8.43;;
66020;SDS011;52789;59.980;30.346;2022-09-27T17:12:11;16.50;;;11.07;;
66020;SDS011;52789;59.980;30.346;2022-09-27T17:14:37;11.40;;;8.47;;
66020;SDS011;52789;59.980;30.346;2022-09-27T17:17:03;12.17;;;8.17;;
66020;SDS011;52789;59.980;30.346;2022-09-27T17:19:30;10.53;;;8.50;;
66020;SDS011;52789;59.980;30.346;2022-09-27T17:21:56;11.90;;;9.83;;
66020;SDS011;52789;59.980;30.346;2022-09-27T17:24:22;12.90;;;9.27;;
66020;SDS011;52789;59.980;30.346;2022-09-27T17:26:48;13.53;;;10.00;;
66020;SDS011;52789;59.980;30.346;2022-09-27T17:29:14;12.73;;;9.40;;
66020;SDS011;52789;59.980;30.346;2022-09-27T17:31:40;13.73;;;9.90;;
66020;SDS011;52789;59.980;30.346;2022-09-27T17:34:06;13.47;;;8.87;;
66020;SDS011;52789;59.980;30.346;2022-09-27T17:36:36;12.50;;;9.87;;
66020;SDS011;52789;59.980;30.346;2022-09-27T17:39:08;11.20;;;9.40;;
66020;SDS011;52789;59.980;30.346;2022-09-27T17:41:36;12.10;;;9.70;;
66020;SDS011;52789;59.980;30.346;2022-09-27T17:44:05;11.00;;;8.85;;
66020;SDS011;52789;59.980;30.346;2022-09-27T17:46:34;17.83;;;10.93;;
66020;SDS011;52789;59.980;30.346;2022-09-27T17:49:01;13.07;;;9.03;;
66020;SDS011;52789;59.980;30.346;2022-09-27T17:51:46;16.27;;;10.10;;
66020;SDS011;52789;59.980;30.346;2022-09-27T17:54:13;13.88;;;10.57;;
66020;SDS011;52789;59.980;30.346;2022-09-27T17:56:41;14.50;;;9.87;;
66020;SDS011;52789;59.980;30.346;2022-09-27T17:59:32;13.53;;;9.50;;
66020;SDS011;52789;59.980;30.346;2022-09-27T18:02:01;14.30;;;9.87;;
66020;SDS011;52789;59.980;30.346;2022-09-27T18:04:35;15.73;;;10.07;;
66020;SDS011;52789;59.980;30.346;2022-09-27T18:07:01;12.37;;;9.90;;
66020;SDS011;52789;59.980;30.346;2022-09-27T18:09:27;14.30;;;10.00;;
66020;SDS011;52789;59.980;30.346;2022-09-27T18:11:52;13.77;;;9.50;;
66020;SDS011;52789;59.980;30.346;2022-09-27T18:14:18;13.60;;;10.20;;
66020;SDS011;52789;59.980;30.346;2022-09-27T18:16:45;13.07;;;9.40;;
66020;SDS011;52789;59.980;30.346;2022-09-27T18:21:40;12.17;;;10.27;;
66020;SDS011;52789;59.980;30.346;2022-09-27T18:26:35;13.17;;;10.27;;